Time;durP1;ratioP1;P1;durP2;ratioP2;P2;SDS_P1;SDS_P2;PMS_P1;PMS_P2;Temp;Humidity;BMP_temperature;BMP_pressure;BME280_temperature;BME280_humidity;BME280_pressure;Samples;Min_cycle;Max_cycle;Signal;HPM_P1;HPM_P2
2022/05/03 00:01:46;;;;;;;0.00;0.00;;;17.00;59.30;;;;;;4167411;28;20053;-65
2022/05/03 00:04:18;;;;;;;0.00;0.00;;;17.00;59.40;;;;;;4163490;28;20055;-65
2022/05/03 00:06:49;;;;;;;0.47;0.47;;;17.00;59.30;;;;;;4165808;28;20048;-65
2022/05/03 00:09:21;;;;;;;0.08;0.08;;;17.00;59.40;;;;;;4161742;28;20064;-65
2022/05/03 00:12:01;;;;;;;0.35;0.35;;;16.90;59.30;;;;;;4168061;28;20057;-66
2022/05/03 00:14:28;;;;;;;0.00;0.00;;;16.90;59.40;;;;;;4162263;28;20160;-65
2022/05/03 00:16:51;;;;;;;0.00;0.00;;;16.90;59.40;;;;;;4164206;28;20044;-65
2022/05/03 00:19:17;;;;;;;0.00;0.00;;;16.90;59.40;;;;;;4167186;28;20068;-65
2022/05/03 00:21:42;;;;;;;0.00;0.00;;;16.90;59.50;;;;;;4177692;28;20068;-65
2022/05/03 00:24:12;;;;;;;0.00;0.00;;;16.90;59.50;;;;;;4162571;28;20037;-65
2022/05/03 00:26:38;;;;;;;0.00;0.00;;;16.90;59.50;;;;;;4162329;28;20492;-66
2022/05/03 00:29:04;;;;;;;0.00;0.00;;;16.90;59.60;;;;;;4170838;28;20064;-65
2022/05/03 00:31:30;;;;;;;0.00;0.00;;;16.90;59.60;;;;;;4162204;28;20049;-66
2022/05/03 00:33:57;;;;;;;0.00;0.00;;;16.90;59.60;;;;;;4150194;28;20041;-65
2022/05/03 00:36:20;;;;;;;0.00;0.00;;;16.90;59.70;;;;;;4171842;28;20053;-65
2022/05/03 00:38:45;;;;;;;0.15;0.15;;;16.80;59.70;;;;;;4171986;28;20057;-65
2022/05/03 00:41:12;;;;;;;0.00;0.00;;;16.90;59.70;;;;;;4170939;28;20041;-66
2022/05/03 00:43:47;;;;;;;0.00;0.00;;;16.80;59.70;;;;;;4170869;28;20068;-65
2022/05/03 00:46:17;;;;;;;0.10;0.10;;;16.80;59.70;;;;;;4172442;28;20122;-66
2022/05/03 00:49:14;;;;;;;0.00;0.00;;;16.80;59.80;;;;;;4179005;28;20048;-65
2022/05/03 00:51:49;;;;;;;0.00;0.00;;;16.80;60.00;;;;;;4187883;28;20052;-66
2022/05/03 00:54:20;;;;;;;0.00;0.00;;;16.80;59.80;;;;;;4188283;28;20059;-65
2022/05/03 00:56:58;;;;;;;0.00;0.00;;;16.80;59.80;;;;;;4167001;28;20532;-66
2022/05/03 00:59:34;;;;;;;;;;;16.80;59.90;;;;;;4163266;28;20086;-65
2022/05/03 01:02:06;;;;;;;0.00;0.00;;;16.80;59.80;;;;;;4180018;28;20013;-65
2022/05/03 01:04:40;;;;;;;0.00;0.00;;;16.70;59.90;;;;;;4172946;28;20115;-65
2022/05/03 01:07:20;;;;;;;0.00;0.00;;;16.70;60.00;;;;;;4174065;28;20048;-65
2022/05/03 01:09:59;;;;;;;0.00;0.00;;;16.70;60.00;;;;;;4188094;28;20045;-65
2022/05/03 01:12:35;;;;;;;0.00;0.00;;;16.70;60.00;;;;;;4188967;28;20068;-65
2022/05/03 01:15:09;;;;;;;0.08;0.08;;;16.70;60.00;;;;;;4172733;28;20079;-65
2022/05/03 01:17:43;;;;;;;0.00;0.00;;;16.70;60.10;;;;;;4186464;28;20045;-64
2022/05/03 01:20:08;;;;;;;0.20;0.20;;;16.70;60.10;;;;;;4190321;28;20139;-66
2022/05/03 01:22:57;;;;;;;0.70;0.70;;;16.70;60.10;;;;;;4182869;28;20047;-65
2022/05/03 01:25:44;;;;;;;0.13;0.13;;;16.60;60.10;;;;;;4188341;28;20107;-65
2022/05/03 01:28:23;;;;;;;0.00;0.00;;;16.60;60.10;;;;;;4191122;28;20048;-65
2022/05/03 01:30:52;;;;;;;0.00;0.00;;;16.60;60.10;;;;;;4186192;28;20049;-65
2022/05/03 01:33:33;;;;;;;0.00;0.00;;;16.60;60.20;;;;;;4188093;28;20496;-66
2022/05/03 01:36:04;;;;;;;0.00;0.00;;;16.60;60.30;;;;;;4189105;28;20063;-65
2022/05/03 01:38:56;;;;;;;0.00;0.00;;;16.60;60.30;;;;;;4179914;28;20044;-65
2022/05/03 01:41:35;;;;;;;0.00;0.00;;;16.60;60.40;;;;;;4196188;28;20036;-66
2022/05/03 01:44:15;;;;;;;0.00;0.00;;;16.60;60.40;;;;;;4180601;28;20053;-65
2022/05/03 01:46:41;;;;;;;0.00;0.00;;;16.60;60.40;;;;;;4186172;28;20077;-65
2022/05/03 01:52:05;;;;;;;0.00;0.00;;;16.50;60.40;;;;;;4205158;28;20430;-65
2022/05/03 01:54:54;;;;;;;0.13;0.13;;;16.50;60.50;;;;;;4190270;28;20083;-65
2022/05/03 01:57:28;;;;;;;0.00;0.00;;;16.50;60.50;;;;;;4181770;28;20056;-66
2022/05/03 02:00:04;;;;;;;0.10;0.10;;;16.50;60.50;;;;;;4165741;28;20060;-65
2022/05/03 02:05:08;;;;;;;0.00;0.00;;;16.50;60.60;;;;;;4220611;27;20417;-66
2022/05/03 02:07:53;;;;;;;0.60;0.60;;;16.50;60.70;;;;;;4218610;28;20039;-65
2022/05/03 02:10:29;;;;;;;0.00;0.00;;;16.50;60.80;;;;;;4203320;28;20048;-65
2022/05/03 02:12:55;;;;;;;0.00;0.00;;;16.50;60.80;;;;;;4204542;28;20048;-66
2022/05/03 02:15:30;;;;;;;0.00;0.00;;;16.50;60.80;;;;;;4209006;28;20123;-65
2022/05/03 02:18:06;;;;;;;0.00;0.00;;;16.50;60.90;;;;;;4188934;28;20539;-65
2022/05/03 02:21:01;;;;;;;0.05;0.05;;;16.40;60.90;;;;;;4211140;28;20422;-65
2022/05/03 02:23:49;;;;;;;0.00;0.00;;;16.40;60.90;;;;;;4198832;28;20117;-66
2022/05/03 02:26:26;;;;;;;0.00;0.00;;;16.40;61.00;;;;;;4171292;28;20044;-65
2022/05/03 02:28:55;;;;;;;0.00;0.00;;;16.40;61.00;;;;;;4204202;28;20054;-66
2022/05/03 02:31:23;;;;;;;0.40;0.20;;;16.40;61.00;;;;;;4211958;28;20390;-64
2022/05/03 02:33:51;;;;;;;0.00;0.00;;;16.40;61.10;;;;;;4210542;28;20044;-65
2022/05/03 02:36:27;;;;;;;0.00;0.00;;;16.30;61.10;;;;;;4221461;28;20070;-64
2022/05/03 02:38:55;;;;;;;0.98;0.98;;;16.40;61.20;;;;;;4219915;28;20502;-63
2022/05/03 02:41:20;;;;;;;0.00;0.00;;;16.30;61.20;;;;;;4219263;28;20107;-64
2022/05/03 02:43:51;;;;;;;0.43;0.43;;;16.30;61.20;;;;;;4217492;28;20402;-64
2022/05/03 02:46:31;;;;;;;0.00;0.00;;;16.30;61.30;;;;;;4216862;28;20075;-64
2022/05/03 02:48:57;;;;;;;0.00;0.00;;;16.30;61.30;;;;;;4217216;28;20055;-64
2022/05/03 02:51:31;;;;;;;0.00;0.00;;;16.30;61.30;;;;;;4216177;28;20115;-65
2022/05/03 02:54:01;;;;;;;0.17;0.17;;;16.30;61.30;;;;;;4209666;28;20052;-66
2022/05/03 02:56:40;;;;;;;0.05;0.05;;;16.30;61.30;;;;;;4185204;28;20060;-64
2022/05/03 02:59:16;;;;;;;0.00;0.00;;;16.30;61.30;;;;;;4220788;27;20146;-64
2022/05/03 03:01:52;;;;;;;0.00;0.00;;;16.30;61.40;;;;;;4225215;27;20526;-65
2022/05/03 03:04:21;;;;;;;0.50;0.43;;;16.20;61.40;;;;;;4210276;28;20040;-66
2022/05/03 03:06:46;;;;;;;0.00;0.00;;;16.20;61.40;;;;;;4221695;28;20071;-66
2022/05/03 03:09:16;;;;;;;0.00;0.00;;;16.20;61.40;;;;;;4201678;28;20483;-65
2022/05/03 03:11:53;;;;;;;0.15;0.15;;;16.30;61.50;;;;;;4229609;28;20055;-65
2022/05/03 03:14:25;;;;;;;0.00;0.00;;;16.20;61.50;;;;;;4208859;28;20052;-66
2022/05/03 03:16:55;;;;;;;0.00;0.00;;;16.20;61.50;;;;;;4198036;28;20059;-66
2022/05/03 03:19:47;;;;;;;0.00;0.00;;;16.20;61.60;;;;;;4217005;28;20101;-65
2022/05/03 03:22:18;;;;;;;1.00;1.00;;;16.20;61.70;;;;;;4205861;28;20339;-65
2022/05/03 03:24:42;;;;;;;0.47;0.30;;;16.20;61.70;;;;;;4196237;28;20087;-65
2022/05/03 03:27:10;;;;;;;0.00;0.00;;;16.20;61.70;;;;;;4192223;28;20741;-65
2022/05/03 03:29:35;;;;;;;0.00;0.00;;;16.20;61.80;;;;;;4212765;28;20105;-66
2022/05/03 03:32:00;;;;;;;0.00;0.00;;;16.20;61.80;;;;;;4198172;28;20043;-64
2022/05/03 03:34:25;;;;;;;0.00;0.00;;;16.20;61.80;;;;;;4204013;28;20051;-64
2022/05/03 03:37:01;;;;;;;3.35;0.82;;;16.20;61.80;;;;;;4191735;28;20068;-65
2022/05/03 03:39:28;;;;;;;0.08;0.08;;;16.20;61.90;;;;;;4192418;28;20049;-64
2022/05/03 03:41:52;;;;;;;0.00;0.00;;;16.10;61.90;;;;;;4205495;28;20521;-65
2022/05/03 03:44:15;;;;;;;0.00;0.00;;;16.10;61.90;;;;;;4198372;28;20055;-65
2022/05/03 03:46:38;;;;;;;0.25;0.25;;;16.10;61.90;;;;;;4202384;28;20079;-65
2022/05/03 03:49:05;;;;;;;0.00;0.00;;;16.10;62.00;;;;;;4180945;28;20104;-65
2022/05/03 03:51:30;;;;;;;0.52;0.52;;;16.10;62.10;;;;;;4209261;28;20047;-64
2022/05/03 03:53:58;;;;;;;0.40;0.40;;;16.10;63.00;;;;;;4199386;28;20076;-64
2022/05/03 03:56:23;;;;;;;0.00;0.00;;;16.10;62.10;;;;;;4198927;28;20134;-64
2022/05/03 03:58:47;;;;;;;0.00;0.00;;;16.10;62.20;;;;;;4212251;28;20036;-65
2022/05/03 04:01:13;;;;;;;0.00;0.00;;;16.10;62.20;;;;;;4205190;28;20076;-65
2022/05/03 04:03:38;;;;;;;0.47;0.47;;;16.10;62.20;;;;;;4197088;28;20052;-65
2022/05/03 04:06:05;;;;;;;0.08;0.08;;;16.10;62.30;;;;;;4212912;28;20111;-63
2022/05/03 04:08:32;;;;;;;3.83;0.85;;;16.10;62.40;;;;;;4194900;28;20063;-64
2022/05/03 04:10:54;;;;;;;0.00;0.00;;;16.10;62.30;;;;;;4207125;28;20570;-64
2022/05/03 04:13:19;;;;;;;0.15;0.15;;;16.10;62.40;;;;;;4207850;28;20047;-65
2022/05/03 04:15:43;;;;;;;0.00;0.00;;;16.10;62.40;;;;;;4196895;28;20052;-66
2022/05/03 04:18:08;;;;;;;0.25;0.25;;;16.10;62.40;;;;;;4195475;28;20071;-65
2022/05/03 04:20:31;;;;;;;0.55;0.55;;;16.10;62.50;;;;;;4202481;28;20118;-65
2022/05/03 04:22:59;;;;;;;0.10;0.10;;;16.10;62.60;;;;;;4214016;28;20051;-63
2022/05/03 04:25:23;;;;;;;0.20;0.20;;;16.10;62.60;;;;;;4206045;28;20056;-65
2022/05/03 04:27:46;;;;;;;0.00;0.00;;;16.10;62.60;;;;;;4175679;28;20054;-65
2022/05/03 04:30:12;;;;;;;0.00;0.00;;;16.10;62.60;;;;;;4206354;28;20129;-65
2022/05/03 04:32:36;;;;;;;0.00;0.00;;;16.10;62.70;;;;;;4208855;28;20167;-66
2022/05/03 04:35:01;;;;;;;0.00;0.00;;;16.00;62.70;;;;;;4190327;28;20391;-65
2022/05/03 04:37:28;;;;;;;0.00;0.00;;;16.10;62.80;;;;;;4188145;28;20052;-65
2022/05/03 04:39:53;;;;;;;0.25;0.25;;;16.00;62.90;;;;;;4210531;28;20145;-65
2022/05/03 04:42:16;;;;;;;0.00;0.00;;;16.00;62.90;;;;;;4208096;28;20090;-66
2022/05/03 04:44:39;;;;;;;0.08;0.08;;;16.00;63.00;;;;;;4191321;28;20136;-66
2022/05/03 04:47:04;;;;;;;1.00;0.70;;;16.00;63.10;;;;;;4179190;28;20037;-64
2022/05/03 04:49:29;;;;;;;0.00;0.00;;;16.00;63.10;;;;;;4194609;28;20071;-65
2022/05/03 04:51:57;;;;;;;0.00;0.00;;;16.00;63.20;;;;;;4188333;28;20107;-65
2022/05/03 04:54:21;;;;;;;0.00;0.00;;;16.00;63.30;;;;;;4209234;28;20050;-65
2022/05/03 04:56:52;;;;;;;0.38;0.30;;;16.00;63.40;;;;;;4189114;28;20127;-65
2022/05/03 04:59:15;;;;;;;0.40;0.40;;;16.00;63.40;;;;;;4208452;28;20055;-67
2022/05/03 05:01:39;;;;;;;0.00;0.00;;;16.10;63.50;;;;;;4200956;28;20048;-66
2022/05/03 05:04:05;;;;;;;0.00;0.00;;;16.00;63.50;;;;;;4191533;28;20112;-66
2022/05/03 05:06:28;;;;;;;0.20;0.20;;;16.10;63.60;;;;;;4200145;28;20051;-65
2022/05/03 05:08:52;;;;;;;0.00;0.00;;;16.00;63.60;;;;;;4190067;28;20122;-65
2022/05/03 05:11:16;;;;;;;0.00;0.00;;;16.00;63.60;;;;;;4184611;28;20446;-66
2022/05/03 05:13:45;;;;;;;0.00;0.00;;;16.00;63.70;;;;;;4208056;28;20423;-65
2022/05/03 05:16:09;;;;;;;0.20;0.20;;;16.00;63.80;;;;;;4209937;28;20040;-64
2022/05/03 05:18:33;;;;;;;0.00;0.00;;;16.00;63.80;;;;;;4207381;28;20055;-65
2022/05/03 05:21:05;;;;;;;0.05;0.05;;;16.00;63.90;;;;;;4201824;28;20051;-62
2022/05/03 05:23:32;;;;;;;0.13;0.13;;;16.00;64.20;;;;;;4194474;28;20074;-64
2022/05/03 05:25:58;;;;;;;0.00;0.00;;;16.00;64.70;;;;;;4203555;28;20050;-65
2022/05/03 05:28:26;;;;;;;0.00;0.00;;;16.00;64.80;;;;;;4202927;28;20079;-64
2022/05/03 05:30:54;;;;;;;0.20;0.20;;;16.10;64.80;;;;;;4194764;28;20479;-65
2022/05/03 05:33:21;;;;;;;0.10;0.10;;;16.00;64.70;;;;;;4172272;28;20539;-64
2022/05/03 05:35:45;;;;;;;2.42;1.65;;;16.00;64.70;;;;;;4209863;28;20122;-65
2022/05/03 05:38:13;;;;;;;0.65;0.65;;;16.00;64.70;;;;;;4172870;28;20044;-65
2022/05/03 05:40:38;;;;;;;0.20;0.20;;;16.00;64.70;;;;;;4189088;27;20058;-64
2022/05/03 05:43:03;;;;;;;0.00;0.00;;;16.00;64.60;;;;;;4199358;28;20051;-64
2022/05/03 05:45:28;;;;;;;0.00;0.00;;;16.00;64.70;;;;;;4198865;28;20483;-64
2022/05/03 05:47:52;;;;;;;0.05;0.05;;;16.00;64.70;;;;;;4194682;28;20043;-64
2022/05/03 05:50:15;;;;;;;0.17;0.17;;;16.00;64.80;;;;;;4202188;28;20044;-64
2022/05/03 05:55:20;;;;;;;0.00;0.00;;;16.00;64.80;;;;;;4204825;28;20070;-64
2022/05/03 05:57:43;;;;;;;0.00;0.00;;;16.00;64.70;;;;;;4187172;28;20044;-64
2022/05/03 06:00:11;;;;;;;0.22;0.22;;;16.00;64.70;;;;;;4187596;28;20045;-63
2022/05/03 06:02:37;;;;;;;0.17;0.17;;;16.00;64.80;;;;;;4194405;28;20048;-64
2022/05/03 06:05:06;;;;;;;0.00;0.00;;;16.00;64.80;;;;;;4175649;28;20055;-64
2022/05/03 06:07:31;;;;;;;0.00;0.00;;;16.00;64.70;;;;;;4217071;28;20062;-64
2022/05/03 06:09:56;;;;;;;0.35;0.35;;;16.00;64.70;;;;;;4187077;28;20074;-64
2022/05/03 06:12:20;;;;;;;0.00;0.00;;;16.00;64.80;;;;;;4206207;28;20052;-64
2022/05/03 06:14:42;;;;;;;0.00;0.00;;;16.00;64.90;;;;;;4186432;28;20052;-64
2022/05/03 06:17:11;;;;;;;0.05;0.05;;;16.00;65.00;;;;;;4195196;28;20094;-64
2022/05/03 06:19:39;;;;;;;0.25;0.25;;;16.00;65.10;;;;;;4203013;28;20040;-64
2022/05/03 06:22:04;;;;;;;0.75;0.75;;;15.90;65.20;;;;;;4201801;28;20043;-64
2022/05/03 06:24:31;;;;;;;0.00;0.00;;;16.00;65.20;;;;;;4188915;28;20044;-64
2022/05/03 06:26:58;;;;;;;0.22;0.22;;;16.00;65.30;;;;;;4195367;28;20488;-64
2022/05/03 06:29:23;;;;;;;4.30;2.13;;;15.90;66.30;;;;;;4212119;28;20059;-64
2022/05/03 06:31:46;;;;;;;0.22;0.22;;;15.90;65.50;;;;;;4198107;28;20052;-64
2022/05/03 06:34:09;;;;;;;0.10;0.10;;;15.90;65.90;;;;;;4212533;28;20054;-64
2022/05/03 06:36:36;;;;;;;0.73;0.73;;;15.90;66.00;;;;;;4196130;28;20070;-63
2022/05/03 06:38:59;;;;;;;0.00;0.00;;;15.90;66.40;;;;;;4193035;28;20446;-63
2022/05/03 06:41:23;;;;;;;0.00;0.00;;;15.80;66.40;;;;;;4179779;28;20509;-63
2022/05/03 06:43:48;;;;;;;0.00;0.00;;;15.80;66.90;;;;;;4169679;28;20049;-63
2022/05/03 06:46:13;;;;;;;0.00;0.00;;;15.80;67.60;;;;;;4193749;28;20055;-63
2022/05/03 06:48:36;;;;;;;0.00;0.00;;;15.80;67.60;;;;;;4198198;28;20054;-63
2022/05/03 06:51:06;;;;;;;0.00;0.00;;;15.80;67.40;;;;;;4170502;28;20079;-63
2022/05/03 06:53:31;;;;;;;0.25;0.25;;;15.70;67.20;;;;;;4196650;28;20058;-63
2022/05/03 06:56:02;;;;;;;0.00;0.00;;;15.70;67.30;;;;;;4197112;28;20047;-63
2022/05/03 06:58:26;;;;;;;0.00;0.00;;;15.70;67.40;;;;;;4182772;28;20063;-63
2022/05/03 07:00:49;;;;;;;1.45;1.17;;;15.70;67.90;;;;;;4191184;28;20052;-63
2022/05/03 07:03:14;;;;;;;9.55;2.45;;;15.70;68.40;;;;;;4200539;28;21542;-63
2022/05/03 07:05:37;;;;;;;0.47;0.35;;;15.70;68.30;;;;;;4200972;28;20083;-63
2022/05/03 07:08:00;;;;;;;0.60;0.60;;;15.70;68.40;;;;;;4186978;28;20052;-63
2022/05/03 07:10:27;;;;;;;0.28;0.28;;;15.70;68.70;;;;;;4186806;28;20475;-63
2022/05/03 07:12:50;;;;;;;0.00;0.00;;;15.60;68.60;;;;;;4198677;28;20052;-63
2022/05/03 07:15:13;;;;;;;2.72;1.23;;;15.60;68.50;;;;;;4198022;28;20234;-63
2022/05/03 07:23:01;;;;;;;0.00;0.00;;;15.60;68.70;;;;;;4181642;28;20048;-63
2022/05/03 07:25:23;;;;;;;0.00;0.00;;;15.60;69.00;;;;;;4195782;28;20052;-63
2022/05/03 07:27:48;;;;;;;0.00;0.00;;;15.60;69.30;;;;;;4198782;28;20052;-66
2022/05/03 07:30:13;;;;;;;0.03;0.03;;;15.60;69.30;;;;;;4194510;28;20043;-65
2022/05/03 07:32:42;;;;;;;0.17;0.17;;;15.50;69.40;;;;;;4202292;28;20048;-63
2022/05/03 07:35:05;;;;;;;0.03;0.03;;;15.50;69.40;;;;;;4183448;28;20040;-63
2022/05/03 07:37:33;;;;;;;0.00;0.00;;;15.50;69.60;;;;;;4196575;28;20479;-63
2022/05/03 07:39:55;;;;;;;0.63;0.63;;;15.50;69.50;;;;;;4200829;28;20157;-63
2022/05/03 07:42:18;;;;;;;0.00;0.00;;;15.50;69.60;;;;;;4186586;28;20058;-64
2022/05/03 07:44:42;;;;;;;0.00;0.00;;;15.50;69.60;;;;;;4200208;28;20062;-65
2022/05/03 07:47:10;;;;;;;0.00;0.00;;;15.50;69.70;;;;;;4196665;28;20514;-63
2022/05/03 07:49:33;;;;;;;0.00;0.00;;;15.50;69.80;;;;;;4193689;28;20095;-62
2022/05/03 07:51:57;;;;;;;0.00;0.00;;;15.50;69.60;;;;;;4197004;28;20052;-63
2022/05/03 07:54:22;;;;;;;0.00;0.00;;;15.50;69.40;;;;;;4192454;28;20084;-64
2022/05/03 07:56:48;;;;;;;0.00;0.00;;;15.50;69.50;;;;;;4199193;28;20105;-64
2022/05/03 07:59:11;;;;;;;0.00;0.00;;;15.50;69.50;;;;;;4169228;28;20049;-64
2022/05/03 08:01:34;;;;;;;0.10;0.10;;;15.50;69.40;;;;;;4197061;28;20051;-64
2022/05/03 08:03:57;;;;;;;0.38;0.38;;;15.50;68.90;;;;;;4188386;28;20130;-64
2022/05/03 08:06:20;;;;;;;0.63;0.63;;;15.50;68.60;;;;;;4197978;28;20056;-63
2022/05/03 08:08:47;;;;;;;0.00;0.00;;;15.50;68.50;;;;;;4179314;28;20043;-63
2022/05/03 08:11:18;;;;;;;0.28;0.28;;;15.50;68.40;;;;;;4186714;28;20479;-62
2022/05/03 08:13:42;;;;;;;0.00;0.00;;;15.50;68.00;;;;;;4213925;28;20132;-63
2022/05/03 08:16:16;;;;;;;0.00;0.00;;;15.50;68.00;;;;;;4196428;28;20044;-62
2022/05/03 08:18:39;;;;;;;0.00;0.00;;;15.50;67.90;;;;;;4196127;28;20044;-64
2022/05/03 08:21:01;;;;;;;0.10;0.10;;;15.50;67.60;;;;;;4208814;28;20059;-63
2022/05/03 08:23:24;;;;;;;0.65;0.52;;;15.50;67.40;;;;;;4193781;28;20048;-63
2022/05/03 08:25:47;;;;;;;0.17;0.17;;;15.50;67.20;;;;;;4197817;28;20105;-63
2022/05/03 08:28:11;;;;;;;0.60;0.60;;;15.40;66.70;;;;;;4200101;28;20043;-64
2022/05/03 08:30:34;;;;;;;0.00;0.00;;;15.50;66.80;;;;;;4191458;28;20037;-65
2022/05/03 08:32:57;;;;;;;0.00;0.00;;;15.40;66.80;;;;;;4198278;28;20568;-63
2022/05/03 08:35:21;;;;;;;0.00;0.00;;;15.40;66.70;;;;;;4199494;28;20066;-62
2022/05/03 08:43:04;;;;;;;0.00;0.00;;;15.40;65.70;;;;;;4204662;28;20052;-63
2022/05/03 08:45:28;;;;;;;0.00;0.00;;;15.40;65.40;;;;;;4196519;28;20122;-63
2022/05/03 08:47:51;;;;;;;0.00;0.00;;;15.40;65.00;;;;;;4192202;28;20051;-64
2022/05/03 08:50:14;;;;;;;0.10;0.10;;;15.40;65.00;;;;;;4204503;28;20101;-64
2022/05/03 08:52:43;;;;;;;0.00;0.00;;;15.40;64.80;;;;;;4192711;28;20111;-64
2022/05/03 08:55:06;;;;;;;0.00;0.00;;;15.40;64.40;;;;;;4194157;28;20064;-64
2022/05/03 08:57:29;;;;;;;0.00;0.00;;;15.40;64.60;;;;;;4192990;28;20048;-65
2022/05/03 08:59:54;;;;;;;0.13;0.13;;;15.40;64.00;;;;;;4193114;28;20190;-64
2022/05/03 09:02:18;;;;;;;0.00;0.00;;;15.40;63.50;;;;;;4182815;28;20056;-64
2022/05/03 09:04:41;;;;;;;0.68;0.68;;;15.40;63.50;;;;;;4194146;28;20122;-64
2022/05/03 09:07:19;;;;;;;0.00;0.00;;;15.40;64.90;;;;;;4193032;28;20054;-63
2022/05/03 09:09:41;;;;;;;0.00;0.00;;;15.40;64.00;;;;;;4198638;28;20561;-65
2022/05/03 09:12:07;;;;;;;0.00;0.00;;;15.40;63.50;;;;;;4195786;28;20056;-64
2022/05/03 09:14:37;;;;;;;0.25;0.25;;;15.40;64.20;;;;;;4205754;28;20701;-64
2022/05/03 09:17:00;;;;;;;0.00;0.00;;;15.40;63.20;;;;;;4207221;28;20064;-63
2022/05/03 09:19:26;;;;;;;0.00;0.00;;;15.40;63.00;;;;;;4207511;28;20814;-64
2022/05/03 09:24:30;;;;;;;0.00;0.00;;;15.40;62.20;;;;;;4197609;28;20044;-63
2022/05/03 09:26:54;;;;;;;0.22;0.22;;;15.50;62.10;;;;;;4192704;28;20487;-64
2022/05/03 09:29:16;;;;;;;0.00;0.00;;;15.50;61.90;;;;;;4194015;28;20121;-64
2022/05/03 09:31:41;;;;;;;0.00;0.00;;;15.50;61.90;;;;;;4193000;28;20068;-64
2022/05/03 09:34:18;;;;;;;0.00;0.00;;;15.50;62.70;;;;;;4189633;28;20208;-64
2022/05/03 09:36:47;;;;;;;0.03;0.03;;;15.50;62.00;;;;;;4205104;28;20086;-65
2022/05/03 09:39:27;;;;;;;0.00;0.00;;;15.50;62.10;;;;;;4201106;28;20052;-64
2022/05/03 09:42:06;;;;;;;0.00;0.00;;;15.50;61.90;;;;;;4193372;28;20059;-64
2022/05/03 09:44:31;;;;;;;0.00;0.00;;;15.50;62.00;;;;;;4183673;28;20040;-65
2022/05/03 09:46:55;;;;;;;0.10;0.10;;;15.50;62.40;;;;;;4200098;28;20106;-64
2022/05/03 09:49:20;;;;;;;0.00;0.00;;;15.50;61.90;;;;;;4182760;28;20059;-65
2022/05/03 09:51:43;;;;;;;0.00;0.00;;;15.50;61.50;;;;;;4192184;28;20091;-65
2022/05/03 09:54:07;;;;;;;2.45;1.00;;;15.50;61.60;;;;;;4194862;28;20052;-65
2022/05/03 09:56:34;;;;;;;0.05;0.05;;;15.60;62.00;;;;;;4197424;28;20043;-65
2022/05/03 09:59:03;;;;;;;0.00;0.00;;;15.60;62.40;;;;;;4193056;28;20471;-65
2022/05/03 10:01:27;;;;;;;0.00;0.00;;;15.60;61.30;;;;;;4197234;28;20045;-64
2022/05/03 10:03:51;;;;;;;0.00;0.00;;;15.60;61.20;;;;;;4191942;28;20123;-63
2022/05/03 10:06:15;;;;;;;0.00;0.00;;;15.60;61.20;;;;;;4198320;28;20052;-63
2022/05/03 10:08:39;;;;;;;0.63;0.63;;;15.60;60.90;;;;;;4191397;28;20040;-64
2022/05/03 10:11:03;;;;;;;0.10;0.10;;;15.70;61.10;;;;;;4195993;28;20067;-63
2022/05/03 10:13:26;;;;;;;0.00;0.00;;;15.70;61.10;;;;;;4190445;28;20050;-63
2022/05/03 10:21:25;;;;;;;4.57;1.02;;;15.70;61.20;;;;;;4190700;28;20048;-63
2022/05/03 10:24:03;;;;;;;0.20;0.20;;;15.70;61.20;;;;;;4187684;28;20048;-62
2022/05/03 10:27:01;;;;;;;0.00;0.00;;;15.70;60.90;;;;;;4202175;28;20055;-63
2022/05/03 10:29:25;;;;;;;0.70;0.70;;;15.80;61.50;;;;;;4185181;28;20068;-64
2022/05/03 10:32:02;;;;;;;0.75;0.75;;;15.80;60.30;;;;;;4200321;28;20237;-65
2022/05/03 10:34:53;;;;;;;0.00;0.00;;;15.80;59.20;;;;;;4197146;28;20066;-64
2022/05/03 10:37:16;;;;;;;0.00;0.00;;;15.90;59.30;;;;;;4198327;28;20051;-63
2022/05/03 10:39:53;;;;;;;0.00;0.00;;;15.90;58.50;;;;;;4192854;28;20526;-64
2022/05/03 10:42:18;;;;;;;0.10;0.10;;;15.90;59.30;;;;;;4194637;28;20044;-64
2022/05/03 10:44:57;;;;;;;0.00;0.00;;;16.00;58.60;;;;;;4201873;28;20047;-64
2022/05/03 10:47:22;;;;;;;0.00;0.00;;;16.00;58.30;;;;;;4200925;28;20406;-64
2022/05/03 10:50:22;;;;;;;0.10;0.10;;;16.00;58.00;;;;;;4195029;28;20063;-63
2022/05/03 10:52:46;;;;;;;0.00;0.00;;;16.00;58.90;;;;;;4201357;28;20493;-64
2022/05/03 10:55:12;;;;;;;0.00;0.00;;;16.10;58.90;;;;;;4199442;28;20052;-65
2022/05/03 10:58:18;;;;;;;0.00;0.00;;;16.10;59.10;;;;;;4195959;28;20155;-64
2022/05/03 11:01:04;;;;;;;0.00;0.00;;;16.10;59.00;;;;;;4198214;28;20446;-64
2022/05/03 11:03:26;;;;;;;0.00;0.00;;;16.10;57.40;;;;;;4195629;28;20056;-63
2022/05/03 11:06:23;;;;;;;0.20;0.20;;;16.20;57.60;;;;;;4207728;28;20044;-64
2022/05/03 11:09:10;;;;;;;0.00;0.00;;;16.20;57.90;;;;;;4197471;28;20114;-64
2022/05/03 11:11:57;;;;;;;0.00;0.00;;;16.20;57.90;;;;;;4195640;28;20140;-64
2022/05/03 11:14:56;;;;;;;0.00;0.00;;;16.20;58.10;;;;;;4199395;28;20795;-64
2022/05/03 11:17:19;;;;;;;0.15;0.15;;;16.30;58.50;;;;;;4201519;28;20052;-64
2022/05/03 11:19:51;;;;;;;0.00;0.00;;;16.30;58.50;;;;;;4198224;28;20118;-64
2022/05/03 11:22:16;;;;;;;0.03;0.03;;;16.30;58.40;;;;;;4189598;28;20048;-64
2022/05/03 11:24:43;;;;;;;0.00;0.00;;;16.40;57.80;;;;;;4194594;28;20150;-65
2022/05/03 11:27:07;;;;;;;0.10;0.10;;;16.40;58.00;;;;;;4190371;28;20101;-65
2022/05/03 11:29:31;;;;;;;0.00;0.00;;;16.40;56.80;;;;;;4196541;28;20483;-63
2022/05/03 11:31:59;;;;;;;0.00;0.00;;;16.40;57.20;;;;;;4190029;28;20041;-64
2022/05/03 11:34:22;;;;;;;0.00;0.00;;;16.40;57.30;;;;;;4201742;28;20134;-64
2022/05/03 11:36:47;;;;;;;0.00;0.00;;;16.40;57.30;;;;;;4187685;28;20474;-64
2022/05/03 11:39:10;;;;;;;0.00;0.00;;;16.40;57.90;;;;;;4188594;28;20047;-64
2022/05/03 11:41:32;;;;;;;2.55;1.20;;;16.50;58.00;;;;;;4203838;28;20044;-64
2022/05/03 11:43:55;;;;;;;0.00;0.00;;;16.50;57.90;;;;;;4194827;28;20116;-64
2022/05/03 11:46:21;;;;;;;0.00;0.00;;;16.50;57.70;;;;;;4202435;28;20147;-64
2022/05/03 11:48:46;;;;;;;0.30;0.30;;;16.50;57.90;;;;;;4204709;28;20044;-64
2022/05/03 11:56:34;;;;;;;0.10;0.10;;;16.60;56.40;;;;;;4194738;28;20137;-63
2022/05/03 11:58:57;;;;;;;0.63;0.63;;;16.60;56.50;;;;;;4194136;28;20052;-64
2022/05/03 12:01:20;;;;;;;0.00;0.00;;;16.60;55.70;;;;;;4192983;28;20257;-64
2022/05/03 12:03:52;;;;;;;0.43;0.43;;;16.60;56.70;;;;;;4199697;28;20514;-64
2022/05/03 12:06:15;;;;;;;0.00;0.00;;;16.60;55.80;;;;;;4181677;28;20128;-62
2022/05/03 12:08:39;;;;;;;0.80;0.80;;;16.70;55.60;;;;;;4197898;28;20055;-62
2022/05/03 12:11:01;;;;;;;0.00;0.00;;;16.70;56.00;;;;;;4196360;28;20079;-63
2022/05/03 12:13:30;;;;;;;0.00;0.00;;;16.70;55.90;;;;;;4190121;28;20056;-61
2022/05/03 12:16:07;;;;;;;0.00;0.00;;;16.70;56.30;;;;;;4190912;28;20053;-62
2022/05/03 12:18:32;;;;;;;0.00;0.00;;;16.70;56.20;;;;;;4193507;28;20053;-61
2022/05/03 12:20:58;;;;;;;0.00;0.00;;;16.70;56.10;;;;;;4200349;28;20048;-63
2022/05/03 12:23:22;;;;;;;0.00;0.00;;;16.70;55.70;;;;;;4189967;28;20504;-63
2022/05/03 12:25:46;;;;;;;0.00;0.00;;;16.70;55.80;;;;;;4190389;28;20052;-62
2022/05/03 12:28:10;;;;;;;0.00;0.00;;;16.70;56.30;;;;;;4180180;28;20056;-63
2022/05/03 12:30:33;;;;;;;0.00;0.00;;;16.80;56.10;;;;;;4172407;28;20118;-63
2022/05/03 12:33:00;;;;;;;0.00;0.00;;;16.80;55.30;;;;;;4195035;28;20056;-63
2022/05/03 12:35:31;;;;;;;0.25;0.25;;;16.80;55.40;;;;;;4191541;28;20523;-63
2022/05/03 12:37:55;;;;;;;0.00;0.00;;;16.80;55.90;;;;;;4201938;28;20566;-62
2022/05/03 12:40:25;;;;;;;0.00;0.00;;;16.80;55.40;;;;;;4196989;28;20060;-62
2022/05/03 12:42:47;;;;;;;0.00;0.00;;;16.80;55.40;;;;;;4193437;28;20097;-62
2022/05/03 12:45:12;;;;;;;0.22;0.22;;;16.80;55.80;;;;;;4198224;28;20059;-62
2022/05/03 12:47:35;;;;;;;0.00;0.00;;;16.80;56.20;;;;;;4204366;28;20051;-62
2022/05/03 12:49:59;;;;;;;0.00;0.00;;;16.80;56.40;;;;;;4196680;28;20052;-62
2022/05/03 12:52:22;;;;;;;0.00;0.00;;;16.80;56.20;;;;;;4199603;28;20056;-62
2022/05/03 12:54:48;;;;;;;0.17;0.17;;;16.80;56.30;;;;;;4197084;28;20054;-62
2022/05/03 12:59:51;;;;;;;0.00;0.00;;;16.80;55.90;;;;;;4200682;28;20052;-62
2022/05/03 13:02:17;;;;;;;0.00;0.00;;;16.90;55.60;;;;;;4193052;28;20044;-63
2022/05/03 13:04:39;;;;;;;0.00;0.00;;;16.90;56.30;;;;;;4194976;28;20045;-61
2022/05/03 13:07:02;;;;;;;0.00;0.00;;;16.90;55.60;;;;;;4197318;28;20051;-61
2022/05/03 13:09:35;;;;;;;0.00;0.00;;;16.90;55.50;;;;;;4196686;28;20048;-62
2022/05/03 13:12:00;;;;;;;0.00;0.00;;;16.90;55.40;;;;;;4197067;28;20048;-62
2022/05/03 13:14:23;;;;;;;0.00;0.00;;;16.90;55.30;;;;;;4196159;28;20055;-62
2022/05/03 13:16:51;;;;;;;0.00;0.00;;;16.90;54.80;;;;;;4199076;28;20049;-62
2022/05/03 13:19:14;;;;;;;0.00;0.00;;;16.90;55.00;;;;;;4195999;28;20453;-62
2022/05/03 13:21:39;;;;;;;0.00;0.00;;;17.00;55.60;;;;;;4190277;28;20070;-61
2022/05/03 13:24:02;;;;;;;0.00;0.00;;;16.90;55.80;;;;;;4191079;28;20159;-62
2022/05/03 13:26:24;;;;;;;0.13;0.13;;;16.90;55.80;;;;;;4206065;28;20131;-62
2022/05/03 13:28:48;;;;;;;0.00;0.00;;;17.00;54.90;;;;;;4200308;28;20683;-62